Adams, Oklahoma
Current Conditions -  °F | °C
As of 2:15 PM on Thursday 29 Jan 2015 (Local Time) from KLBL Reporting Station
Broken Clouds Broken Clouds  
Wind Chill:   Ceiling: 11000
Heat Index:   Visibility: 10mi
Dew Point: -3°   Wind: 13mph
Humidity: 43%   Direction: 360°N
Pressure: 30.49"   Gusts: 17mph
Location:  36.76°N, 101.08°W
Report Text: KLBL 292015Z AUTO 36011G15KT 10SM BKN110 09/M03 A3049 RMK AO1
Loading
Personal Weather Stations






























Interactive Weather Map New forecast layout! Learn more

10-Day Weather Forecast

Advertisements
Track Severe Weather on mobile